createdAt,value
2016-01-01T00:00:56.300Z,3
2016-01-01T00:01:55.553Z,3
2016-01-01T00:02:54.853Z,3
2016-01-01T00:03:56.590Z,3.1
2016-01-01T00:04:55.827Z,3.1
2016-01-01T00:05:55.079Z,3
2016-01-01T00:06:54.317Z,3
2016-01-01T00:07:53.554Z,3.1
2016-01-01T00:08:52.791Z,3.1
2016-01-01T00:09:52.044Z,3.1
2016-01-01T00:10:51.281Z,3.1
2016-01-01T00:11:50.519Z,3.1
2016-01-01T00:12:49.831Z,3.1
2016-01-01T00:13:51.568Z,3.1
2016-01-01T00:14:50.821Z,3.1
2016-01-01T00:15:50.057Z,3.1
2016-01-01T00:16:49.294Z,3.1
2016-01-01T00:17:48.532Z,3.1
2016-01-01T00:18:47.784Z,3.1
2016-01-01T00:19:47.287Z,3.1
2016-01-01T00:20:46.524Z,3.1
2016-01-01T00:21:45.762Z,3.1
2016-01-01T00:22:45.060Z,3.1
2016-01-01T00:23:46.813Z,3.1
2016-01-01T00:24:46.051Z,3.1
2016-01-01T00:25:45.287Z,3.1
2016-01-01T00:26:44.526Z,3.1
2016-01-01T00:27:43.778Z,3.1
2016-01-01T00:28:43.015Z,3.1
2016-01-01T00:29:42.251Z,3.1
2016-01-01T00:30:41.504Z,3.1
2016-01-01T00:31:40.742Z,3.1
2016-01-01T00:32:40.042Z,3.1
2016-01-01T00:33:41.779Z,3.1
2016-01-01T00:34:41.032Z,3.1
2016-01-01T00:35:40.268Z,3.2
2016-01-01T00:36:39.506Z,3.1
2016-01-01T00:37:38.758Z,3.1
2016-01-01T00:38:37.996Z,3.2
2016-01-01T00:39:37.262Z,3.2
2016-01-01T00:40:36.482Z,3.2
2016-01-01T00:41:35.720Z,3.2
2016-01-01T00:42:35.019Z,3.2
2016-01-01T00:43:36.756Z,3.2
2016-01-01T00:44:36.010Z,3.2
2016-01-01T00:45:35.262Z,3.2
2016-01-01T00:46:34.749Z,3.2
2016-01-01T00:47:34.252Z,3.2
2016-01-01T00:48:33.739Z,3.2
2016-01-01T00:49:33.243Z,3.2
2016-01-01T00:50:32.745Z,3.2
2016-01-01T00:51:31.982Z,3.2
2016-01-01T00:52:31.531Z,3.2
2016-01-01T00:53:33.285Z,3.2
2016-01-01T00:54:32.521Z,3.2
2016-01-01T00:55:31.774Z,3.3
2016-01-01T00:56:31.012Z,3.2
2016-01-01T00:57:30.249Z,3.3
2016-01-01T00:58:29.486Z,3.2
2016-01-01T00:59:28.739Z,3.2
2016-01-01T01:00:27.975Z,3.3
2016-01-01T01:01:27.212Z,3.2
2016-01-01T01:02:26.512Z,3.2
2016-01-01T01:03:28.265Z,3.2
2016-01-01T01:04:27.503Z,3.2
2016-01-01T01:05:26.739Z,3.2
2016-01-01T01:06:25.992Z,3.2
2016-01-01T01:07:25.479Z,3.2
2016-01-01T01:08:24.714Z,3.2
2016-01-01T01:09:24.216Z,3.2
2016-01-01T01:10:23.469Z,3.2
2016-01-01T01:11:22.956Z,3.2
2016-01-01T01:12:22.256Z,3.2
2016-01-01T01:13:24.009Z,3.2
2016-01-01T01:14:23.496Z,3.2
2016-01-01T01:15:22.999Z,3.2
2016-01-01T01:16:22.501Z,3.3
2016-01-01T01:18:21.225Z,3.3
2016-01-01T01:19:20.729Z,3.3
2016-01-01T01:20:20.231Z,3.3
2016-01-01T01:21:19.718Z,3.3
2016-01-01T01:22:19.285Z,3.3
2016-01-01T01:23:21.022Z,3.3
2016-01-01T01:24:20.524Z,3.3
2016-01-01T01:25:20.024Z,3.3
2016-01-01T01:26:19.512Z,3.3
2016-01-01T01:27:19.015Z,3.3
2016-01-01T01:28:18.518Z,3.3
2016-01-01T01:29:18.004Z,3.3
2016-01-01T01:30:17.507Z,3.3
2016-01-01T01:31:17.010Z,3.3
2016-01-01T01:32:16.560Z,3.3
2016-01-01T01:33:18.297Z,3.4
2016-01-01T01:34:18.065Z,3.3
2016-01-01T01:35:17.818Z,3.4
2016-01-01T01:36:17.571Z,3.4
2016-01-01T01:37:17.324Z,3.4
2016-01-01T01:38:17.061Z,3.4
2016-01-01T01:39:16.563Z,3.4
2016-01-01T01:40:16.066Z,3.4
2016-01-01T01:41:15.554Z,3.4
2016-01-01T01:42:15.104Z,3.4
2016-01-01T01:43:16.856Z,3.4
2016-01-01T01:44:16.093Z,3.3
2016-01-01T01:45:15.596Z,3.4
2016-01-01T01:46:14.833Z,3.4
2016-01-01T01:47:14.070Z,3.4
2016-01-01T01:48:13.323Z,3.3
2016-01-01T01:49:12.559Z,3.3
2016-01-01T01:50:12.046Z,3.3
2016-01-01T01:51:11.549Z,3.3
2016-01-01T01:52:11.099Z,3.3
2016-01-01T01:53:12.851Z,3.3
2016-01-01T01:54:12.340Z,3.4
2016-01-01T01:55:11.592Z,3.4
2016-01-01T01:56:10.842Z,3.4
2016-01-01T01:57:10.063Z,3.4
2016-01-01T01:58:09.300Z,3.3
2016-01-01T01:59:08.538Z,3.3
2016-01-01T02:00:07.790Z,3.3
2016-01-01T02:01:07.028Z,3.3
2016-01-01T02:02:06.323Z,3.3
2016-01-01T02:03:08.075Z,3.3
2016-01-01T02:04:07.562Z,3.3
2016-01-01T02:05:07.065Z,3.3
2016-01-01T02:06:06.552Z,3.3
2016-01-01T02:07:06.054Z,3.3
2016-01-01T02:08:05.557Z,3.3
2016-01-01T02:09:05.046Z,3.3
2016-01-01T02:10:04.548Z,3.3
2016-01-01T02:11:04.035Z,3.3
2016-01-01T02:12:03.601Z,3.3
2016-01-01T02:13:05.338Z,3.3
2016-01-01T02:14:04.840Z,3.2
2016-01-01T02:15:04.593Z,3.2
2016-01-01T02:16:04.346Z,3.2
2016-01-01T02:17:04.099Z,3.2
2016-01-01T02:18:03.851Z,3.1
2016-01-01T02:19:03.603Z,3.1
2016-01-01T02:20:03.373Z,3
2016-01-01T02:21:03.125Z,3
2016-01-01T02:22:02.924Z,2.9
2016-01-01T02:23:04.677Z,2.9
2016-01-01T02:24:04.446Z,2.9
2016-01-01T02:25:04.449Z,2.9
2016-01-01T02:26:04.451Z,2.9
2016-01-01T02:27:04.470Z,2.9
2016-01-01T02:28:04.220Z,2.9
2016-01-01T02:29:04.223Z,2.9
2016-01-01T02:30:04.241Z,2.9
2016-01-01T02:31:04.509Z,2.9
2016-01-01T02:32:04.824Z,2.9
2016-01-01T02:33:06.579Z,2.9
2016-01-01T02:34:06.848Z,2.8
2016-01-01T02:35:07.117Z,2.8
2016-01-01T02:36:07.369Z,2.8
2016-01-01T02:37:07.637Z,2.7
2016-01-01T02:38:07.906Z,2.7
2016-01-01T02:39:08.175Z,2.7
2016-01-01T02:40:08.442Z,2.7
2016-01-01T02:41:08.694Z,2.6
2016-01-01T02:42:09.025Z,2.6
2016-01-01T02:43:10.747Z,2.5
2016-01-01T02:44:11.296Z,2.5
2016-01-01T02:45:11.533Z,2.5
2016-01-01T02:46:12.069Z,2.5
2016-01-01T02:47:12.586Z,2.4
2016-01-01T02:48:13.105Z,2.4
2016-01-01T02:49:13.888Z,2.4
2016-01-01T02:50:14.672Z,2.4
2016-01-01T02:51:15.457Z,2.4
2016-01-01T02:52:16.288Z,2.4
2016-01-01T02:53:18.040Z,2.4
2016-01-01T02:54:18.809Z,2.5
2016-01-01T02:55:19.858Z,2.5
2016-01-01T02:56:20.892Z,2.5
2016-01-01T02:57:21.926Z,2.6
2016-01-01T02:58:23.210Z,2.7
2016-01-01T02:59:24.244Z,2.7
2016-01-01T03:00:25.293Z,2.7
2016-01-01T03:01:26.327Z,2.7
2016-01-01T03:02:27.424Z,2.7
2016-01-01T03:03:29.177Z,2.8
2016-01-01T03:04:29.945Z,2.8
2016-01-01T03:05:30.854Z,2.8
2016-01-01T03:06:31.513Z,2.8
2016-01-01T03:07:32.297Z,2.8
2016-01-01T03:08:33.066Z,2.8
2016-01-01T03:09:33.849Z,2.8
2016-01-01T03:10:34.634Z,2.8
2016-01-01T03:11:35.401Z,2.8
2016-01-01T03:12:36.248Z,2.7
2016-01-01T03:13:37.985Z,2.7
2016-01-01T03:14:38.769Z,2.7
2016-01-01T03:15:39.537Z,2.7
2016-01-01T03:16:40.321Z,2.7
2016-01-01T03:17:41.106Z,2.7
2016-01-01T03:18:41.890Z,2.7
2016-01-01T03:19:42.673Z,2.7
2016-01-01T03:20:43.442Z,2.7
2016-01-01T03:21:44.226Z,2.7
2016-01-01T03:22:45.056Z,2.7
2016-01-01T03:23:46.809Z,2.7
2016-01-01T03:24:47.593Z,2.7
2016-01-01T03:25:48.361Z,2.7
2016-01-01T03:26:49.145Z,2.7
2016-01-01T03:27:49.931Z,2.7
2016-01-01T03:28:50.714Z,2.7
2016-01-01T03:29:51.482Z,2.6
2016-01-01T03:30:52.267Z,2.6
2016-01-01T03:31:53.050Z,2.6
2016-01-01T03:32:53.881Z,2.6
2016-01-01T03:33:55.617Z,2.6
2016-01-01T03:34:56.402Z,2.6
2016-01-01T03:35:57.186Z,2.6
2016-01-01T03:36:57.970Z,2.5
2016-01-01T03:37:58.754Z,2.5
2016-01-01T03:38:59.522Z,2.5
2016-01-01T03:40:00.306Z,2.5
2016-01-01T03:41:01.340Z,2.5
2016-01-01T03:42:02.374Z,2.5
2016-01-01T03:43:03.471Z,2.5
2016-01-01T03:44:05.208Z,2.5
2016-01-01T03:45:06.508Z,2.5
2016-01-01T03:46:07.792Z,2.5
2016-01-01T03:47:09.091Z,2.5
2016-01-01T03:48:10.391Z,2.5
2016-01-01T03:49:11.674Z,2.4
2016-01-01T03:50:12.958Z,2.4
2016-01-01T03:51:14.258Z,2.4
2016-01-01T03:52:15.558Z,2.4
2016-01-01T03:54:18.657Z,2.4
2016-01-01T03:55:19.941Z,2.4
2016-01-01T03:56:21.225Z,2.4
2016-01-01T03:57:22.525Z,2.4
2016-01-01T03:59:25.093Z,2.4
2016-01-01T04:00:26.393Z,2.4
2016-01-01T04:01:27.692Z,2.4
2016-01-01T04:02:28.977Z,2.4
2016-01-01T04:03:30.322Z,2.4
2016-01-01T04:04:32.074Z,2.4
2016-01-01T04:06:34.659Z,2.4
2016-01-01T04:07:35.958Z,2.4
2016-01-01T04:08:37.243Z,2.4
2016-01-01T04:09:38.527Z,2.4
2016-01-01T04:10:39.826Z,2.4
2016-01-01T04:11:41.110Z,2.3
2016-01-01T04:12:42.410Z,2.3
2016-01-01T04:13:43.756Z,2.3
2016-01-01T04:14:45.493Z,2.3
2016-01-01T04:15:46.793Z,2.3
2016-01-01T04:16:48.093Z,2.2
2016-01-01T04:17:49.643Z,2.2
2016-01-01T04:18:51.192Z,2.2
2016-01-01T04:19:52.741Z,2.3
2016-01-01T04:20:54.541Z,2.3
2016-01-01T04:22:57.640Z,2.3
2016-01-01T04:23:59.502Z,2.3
2016-01-01T04:25:01.240Z,2.3
2016-01-01T04:26:02.790Z,2.3
2016-01-01T04:27:04.604Z,2.3
2016-01-01T04:28:06.405Z,2.3
2016-01-01T04:29:08.204Z,2.3
2016-01-01T04:30:09.754Z,2.3
2016-01-01T04:31:11.554Z,2.3
2016-01-01T04:33:14.918Z,2.3
2016-01-01T04:34:16.529Z,2.3
2016-01-01T04:35:18.282Z,2.2
2016-01-01T04:36:19.817Z,2.2
2016-01-01T04:37:21.371Z,2.2
2016-01-01T04:38:22.921Z,2.1
2016-01-01T04:39:24.720Z,2.1
2016-01-01T04:41:28.336Z,2.1
2016-01-01T04:42:29.870Z,2
2016-01-01T04:43:31.420Z,1.9
2016-01-01T04:44:33.282Z,1.9
2016-01-01T04:45:35.034Z,1.9
2016-01-01T04:46:36.834Z,1.9
2016-01-01T04:47:38.649Z,1.9
2016-01-01T04:48:40.452Z,1.8
2016-01-01T04:49:42.268Z,1.8
2016-01-01T04:50:44.068Z,1.8
2016-01-01T04:51:45.867Z,1.8
2016-01-01T04:52:47.682Z,1.8
2016-01-01T04:53:49.482Z,1.8
2016-01-01T04:54:51.344Z,1.8
2016-01-01T04:55:53.096Z,1.7
2016-01-01T04:56:54.896Z,1.7
2016-01-01T04:57:56.697Z,1.7
2016-01-01T04:58:58.512Z,1.7
2016-01-01T05:00:00.561Z,1.7
2016-01-01T05:01:02.377Z,1.7
2016-01-01T05:02:04.176Z,1.7
2016-01-01T05:03:06.241Z,1.7
2016-01-01T05:04:08.307Z,1.7
2016-01-01T05:05:10.435Z,1.7
2016-01-01T05:06:12.171Z,1.7
2016-01-01T05:07:14.237Z,1.7
2016-01-01T05:08:16.302Z,1.7
2016-01-01T05:09:18.368Z,1.7
2016-01-01T05:10:20.432Z,1.7
2016-01-01T05:11:22.498Z,1.6
2016-01-01T05:12:24.547Z,1.6
2016-01-01T05:13:26.613Z,1.6
2016-01-01T05:14:28.943Z,1.5
2016-01-01T05:16:33.074Z,1.6
2016-01-01T05:17:35.390Z,1.5
2016-01-01T05:18:37.704Z,1.5
2016-01-01T05:19:40.020Z,1.5
2016-01-01T05:20:42.351Z,1.5
2016-01-01T05:21:44.666Z,1.5
2016-01-01T05:22:46.982Z,1.5
2016-01-01T05:23:49.296Z,1.5
2016-01-01T05:24:51.627Z,1.4
2016-01-01T05:25:54.005Z,1.4
2016-01-01T05:26:55.758Z,1.4
2016-01-01T05:27:58.105Z,1.3
2016-01-01T05:29:00.388Z,1.3
2016-01-01T05:30:02.704Z,1.3
2016-01-01T05:31:05.034Z,1.3
2016-01-01T05:32:07.350Z,1.3
2016-01-01T05:33:09.681Z,1.3
2016-01-01T05:34:11.995Z,1.3
2016-01-01T05:35:14.312Z,1.3
2016-01-01T05:36:16.689Z,1.3
2016-01-01T05:37:18.442Z,1.3
2016-01-01T05:38:20.773Z,1.2
2016-01-01T05:39:23.072Z,1.2
2016-01-01T05:40:25.404Z,1.2
2016-01-01T05:41:27.718Z,1.2
2016-01-01T05:42:30.034Z,1.2
2016-01-01T05:43:32.365Z,1.2
2016-01-01T05:44:34.679Z,1.2
2016-01-01T05:45:36.995Z,1.2
2016-01-01T05:46:39.373Z,1.1
2016-01-01T05:47:41.125Z,1.1
2016-01-01T05:48:43.456Z,1.1
2016-01-01T05:49:45.772Z,1.1
2016-01-01T05:50:48.087Z,1.1
2016-01-01T05:51:50.403Z,1
2016-01-01T05:52:52.733Z,1
2016-01-01T05:53:55.064Z,1
2016-01-01T05:54:57.379Z,0.9
2016-01-01T05:55:59.695Z,0.9
2016-01-01T05:57:02.073Z,0.9
2016-01-01T05:58:03.825Z,0.9
2016-01-01T05:59:06.140Z,0.8
2016-01-01T06:00:08.471Z,0.8
2016-01-01T06:02:13.102Z,0.7
2016-01-01T06:03:11.573Z,0.7
2016-01-01T06:04:10.061Z,0.7
2016-01-01T06:05:08.548Z,0.6
2016-01-01T06:06:07.003Z,0.6
2016-01-01T06:07:05.538Z,0.6
2016-01-01T06:08:07.290Z,0.6
2016-01-01T06:09:06.028Z,0.6
2016-01-01T06:10:04.765Z,0.6
2016-01-01T06:11:03.487Z,0.7
2016-01-01T06:12:02.208Z,0.7
2016-01-01T06:13:00.945Z,0.8
2016-01-01T06:13:59.682Z,0.8
2016-01-01T06:14:58.417Z,0.9
2016-01-01T06:15:57.137Z,0.9
2016-01-01T06:16:55.923Z,1
2016-01-01T06:17:57.675Z,1
2016-01-01T06:18:56.412Z,1.1
2016-01-01T06:19:55.149Z,1.1
2016-01-01T06:20:53.870Z,1.1
2016-01-01T06:21:52.608Z,1.1
2016-01-01T06:22:51.328Z,1.2
2016-01-01T06:23:50.067Z,1.2
2016-01-01T06:24:48.804Z,1.2
2016-01-01T06:25:47.540Z,1.2
2016-01-01T06:26:46.325Z,1.2
2016-01-01T06:27:48.062Z,1.2
2016-01-01T06:28:46.798Z,1.2
2016-01-01T06:29:45.536Z,1.2
2016-01-01T06:30:44.258Z,1.2
2016-01-01T06:31:42.995Z,1.2
2016-01-01T06:32:41.731Z,1.2
2016-01-01T06:33:40.454Z,1.2
2016-01-01T06:34:39.190Z,1.2
2016-01-01T06:35:37.912Z,1.2
2016-01-01T06:36:36.711Z,1.2
2016-01-01T06:37:38.464Z,1.2
2016-01-01T06:38:37.186Z,1.3
2016-01-01T06:39:35.920Z,1.3
2016-01-01T06:40:34.642Z,1.3
2016-01-01T06:41:33.378Z,1.3
2016-01-01T06:42:32.116Z,1.4
2016-01-01T06:43:30.853Z,1.4
2016-01-01T06:44:29.559Z,1.5
2016-01-01T06:45:28.296Z,1.5
2016-01-01T06:46:27.017Z,1.5
2016-01-01T06:47:28.770Z,1.6
2016-01-01T06:48:27.820Z,1.6
2016-01-01T06:49:26.557Z,1.6
2016-01-01T06:50:25.279Z,1.6
2016-01-01T06:51:24.016Z,1.6
2016-01-01T06:52:22.737Z,1.6
2016-01-01T06:53:21.474Z,1.6
2016-01-01T06:54:20.211Z,1.6
2016-01-01T06:55:18.933Z,1.6
2016-01-01T06:56:17.717Z,1.6
2016-01-01T06:57:19.470Z,1.7
2016-01-01T06:58:18.207Z,1.7
2016-01-01T06:59:16.928Z,1.6
2016-01-01T07:00:15.666Z,1.7
2016-01-01T07:01:14.386Z,1.7
2016-01-01T07:02:13.121Z,1.6
2016-01-01T07:03:11.843Z,1.6
2016-01-01T07:05:09.317Z,1.5
2016-01-01T07:06:08.101Z,1.5
2016-01-01T07:07:09.841Z,1.5
2016-01-01T07:08:08.561Z,1.5
2016-01-01T07:09:07.267Z,1.5
2016-01-01T07:10:05.987Z,1.6
2016-01-01T07:11:04.693Z,1.6
2016-01-01T07:13:02.141Z,1.6
2016-01-01T07:14:00.871Z,1.7
2016-01-01T07:14:59.604Z,1.7
2016-01-01T07:15:58.367Z,1.7
2016-01-01T07:17:00.117Z,1.7
2016-01-01T07:17:58.853Z,1.7
2016-01-01T07:18:57.587Z,1.7
2016-01-01T07:19:56.306Z,1.7
2016-01-01T07:20:55.041Z,1.7
2016-01-01T07:21:53.762Z,1.7
2016-01-01T07:22:52.498Z,1.7
2016-01-01T07:23:51.235Z,1.7
2016-01-01T07:24:49.953Z,1.7
2016-01-01T07:25:48.737Z,1.7
2016-01-01T07:26:50.504Z,1.8
2016-01-01T07:27:49.226Z,1.8
2016-01-01T07:28:47.947Z,1.9
2016-01-01T07:30:45.406Z,1.9
2016-01-01T07:31:44.143Z,1.9
2016-01-01T07:32:42.864Z,1.9
2016-01-01T07:33:41.618Z,2
2016-01-01T07:34:40.339Z,2
2016-01-01T07:35:39.123Z,2
2016-01-01T07:36:40.860Z,1.9
2016-01-01T07:37:39.597Z,2
2016-01-01T07:38:38.335Z,1.9
2016-01-01T07:39:37.056Z,1.9
2016-01-01T07:40:35.793Z,1.9
2016-01-01T07:41:34.515Z,1.9
2016-01-01T07:42:33.251Z,1.9
2016-01-01T07:43:31.973Z,1.9
2016-01-01T07:44:30.711Z,1.8
2016-01-01T07:45:29.510Z,1.8
2016-01-01T07:46:31.248Z,1.9
2016-01-01T07:47:29.982Z,1.8
2016-01-01T07:48:28.703Z,1.8
2016-01-01T07:49:27.440Z,1.8
2016-01-01T07:50:26.178Z,1.8
2016-01-01T07:51:24.898Z,1.8
2016-01-01T07:52:23.636Z,1.8
2016-01-01T07:53:22.358Z,1.9
2016-01-01T07:54:21.095Z,1.8
2016-01-01T07:55:19.879Z,1.8
2016-01-01T07:56:21.631Z,1.9
2016-01-01T07:57:20.369Z,1.8
2016-01-01T07:59:17.812Z,1.9
2016-01-01T08:00:16.548Z,1.9
2016-01-01T08:01:15.270Z,1.9
2016-01-01T08:02:14.008Z,1.9
2016-01-01T08:03:12.729Z,1.9
2016-01-01T08:04:11.467Z,1.8
2016-01-01T08:05:10.250Z,1.8
2016-01-01T08:06:12.003Z,1.8
2016-01-01T08:07:10.740Z,1.9
2016-01-01T08:08:09.461Z,1.9
2016-01-01T08:09:08.198Z,2
2016-01-01T08:10:06.920Z,2.1
2016-01-01T08:11:05.655Z,2.1
2016-01-01T08:12:04.376Z,2.1
2016-01-01T08:14:01.834Z,2.4
2016-01-01T08:15:00.619Z,2.5
2016-01-01T08:16:02.372Z,2.5
2016-01-01T08:17:01.092Z,2.6
2016-01-01T08:17:59.830Z,2.7
2016-01-01T08:18:58.567Z,2.8
2016-01-01T08:19:57.289Z,2.8
2016-01-01T08:20:56.026Z,2.9
2016-01-01T08:21:54.747Z,2.9
2016-01-01T08:22:53.484Z,3
2016-01-01T08:23:52.206Z,3
2016-01-01T08:24:50.974Z,3.1
2016-01-01T08:25:52.727Z,3.2
2016-01-01T08:26:55.042Z,3.3
2016-01-01T08:27:57.358Z,3.4
2016-01-01T08:28:59.689Z,3.6
2016-01-01T08:30:02.003Z,3.7
2016-01-01T08:31:04.320Z,3.8
2016-01-01T08:32:06.134Z,3.8
2016-01-01T08:33:07.934Z,3.9
2016-01-01T08:34:09.734Z,3.9
2016-01-01T08:35:11.080Z,3.8
2016-01-01T08:36:12.818Z,3.7
2016-01-01T08:37:13.852Z,3.7
2016-01-01T08:38:14.636Z,3.7
2016-01-01T08:40:16.189Z,3.6
2016-01-01T08:41:16.972Z,3.5
2016-01-01T08:42:17.491Z,3.5
2016-01-01T08:43:18.009Z,3.4
2016-01-01T08:44:18.808Z,3.4
2016-01-01T08:45:19.624Z,3.3
2016-01-01T08:46:21.377Z,3.4
2016-01-01T08:47:22.161Z,3.3
2016-01-01T08:48:22.928Z,3.3
2016-01-01T08:49:23.478Z,3.3
2016-01-01T08:50:23.981Z,3.3
2016-01-01T08:51:24.500Z,3.3
2016-01-01T08:52:25.034Z,3.2
2016-01-01T08:53:25.802Z,3.3
2016-01-01T08:54:26.586Z,3.3
2016-01-01T08:55:27.416Z,3.3
2016-01-01T08:56:29.169Z,3.3
2016-01-01T08:57:29.938Z,3.3
2016-01-01T08:58:30.722Z,3.4
2016-01-01T08:59:31.272Z,3.4
2016-01-01T09:00:31.540Z,3.5
2016-01-01T09:01:31.808Z,3.5
2016-01-01T09:02:32.060Z,3.6
2016-01-01T09:03:32.330Z,3.6
2016-01-01T09:04:32.347Z,3.6
2016-01-01T09:05:32.144Z,3.7
2016-01-01T09:06:33.900Z,3.8
2016-01-01T09:07:33.652Z,3.8
2016-01-01T09:08:33.402Z,3.9
2016-01-01T09:09:33.155Z,4
2016-01-01T09:10:32.393Z,4.1
2016-01-01T09:11:31.630Z,4.1
2016-01-01T09:12:30.601Z,4.1
2016-01-01T09:13:29.338Z,4.1
2016-01-01T09:14:28.060Z,4.1
2016-01-01T09:15:26.843Z,4.2
2016-01-01T09:16:28.581Z,4.2
2016-01-01T09:17:27.318Z,4.2
2016-01-01T09:18:25.790Z,4.2
2016-01-01T09:19:28.089Z,4.2
2016-01-01T09:20:30.420Z,4.2
2016-01-01T09:21:32.735Z,4.2
2016-01-01T09:22:35.051Z,4.2
2016-01-01T09:23:37.365Z,4.2
2016-01-01T09:24:39.682Z,4.5
2016-01-01T09:25:42.043Z,4.7
2016-01-01T09:26:43.812Z,4.8
2016-01-01T09:27:45.612Z,4.8
2016-01-01T09:28:47.410Z,4.9
2016-01-01T09:29:49.196Z,5.1
2016-01-01T09:30:50.479Z,5
2016-01-01T09:31:51.263Z,5
2016-01-01T09:32:52.032Z,5.1
2016-01-01T09:33:52.800Z,5.1
2016-01-01T09:34:53.068Z,4.9
2016-01-01T09:35:53.133Z,5.3
2016-01-01T09:36:54.871Z,5.7
2016-01-01T09:37:54.639Z,6.2
2016-01-01T09:38:53.860Z,6.7
2016-01-01T09:39:56.176Z,7.2
2016-01-01T09:40:57.210Z,7.6
2016-01-01T09:41:57.462Z,7.7
2016-01-01T09:42:56.450Z,7.6
2016-01-01T09:43:55.171Z,7.5
2016-01-01T09:44:53.892Z,7.3
2016-01-01T09:45:52.927Z,7
2016-01-01T09:46:54.664Z,6.8
2016-01-01T09:47:54.167Z,6.6
2016-01-01T09:48:53.920Z,6.5
2016-01-01T09:49:54.188Z,6.4
2016-01-01T09:50:54.706Z,6.3
2016-01-01T09:51:55.474Z,6.1
2016-01-01T09:52:56.493Z,6
2016-01-01T09:53:57.793Z,5.8
2016-01-01T09:54:59.327Z,5.6
2016-01-01T09:57:02.926Z,5.2
2016-01-01T09:58:05.241Z,5
2016-01-01T09:59:03.978Z,4.9
2016-01-01T10:00:03.200Z,4.9
2016-01-01T10:01:02.687Z,4.8
2016-01-01T10:02:02.439Z,4.7
2016-01-01T10:03:02.193Z,4.6
2016-01-01T10:04:01.943Z,4.5
2016-01-01T10:05:02.212Z,4.5
2016-01-01T10:06:02.526Z,4.8
2016-01-01T10:07:04.250Z,5.1
2016-01-01T10:08:04.768Z,5.3
2016-01-01T10:09:04.534Z,5.5
2016-01-01T10:10:03.755Z,5.7
2016-01-01T10:11:02.478Z,5.8
2016-01-01T10:12:00.949Z,5.9
2016-01-01T10:13:03.248Z,5.9
2016-01-01T10:14:05.048Z,5.9
2016-01-01T10:15:06.863Z,5.8
2016-01-01T10:16:08.959Z,5.7
2016-01-01T10:17:10.697Z,5.7
2016-01-01T10:18:13.028Z,5.6
2016-01-01T10:19:15.343Z,5.6
2016-01-01T10:20:17.642Z,5.7
2016-01-01T10:21:19.942Z,5.7
2016-01-01T10:22:18.414Z,5.7
2016-01-01T10:23:16.885Z,5.7
2016-01-01T10:24:19.200Z,5.7
2016-01-01T10:25:21.500Z,5.9
2016-01-01T10:26:23.862Z,5.9
2016-01-01T10:27:25.615Z,6
2016-01-01T10:28:27.664Z,6
2016-01-01T10:29:29.464Z,6.1
2016-01-01T10:30:31.264Z,6.1
2016-01-01T10:31:33.189Z,6.1
2016-01-01T10:32:34.597Z,6.1
2016-01-01T10:33:36.148Z,6.2
2016-01-01T10:34:37.681Z,6.3
2016-01-01T10:35:38.965Z,6.2
2016-01-01T10:36:40.061Z,6.1
2016-01-01T10:37:41.799Z,6.1
2016-01-01T10:38:42.567Z,6.1
2016-01-01T10:39:43.586Z,6
2016-01-01T10:40:44.619Z,5.9
2016-01-01T10:41:45.638Z,5.7
2016-01-01T10:42:46.938Z,5.5
2016-01-01T10:45:49.509Z,5.4
2016-01-01T10:46:48.292Z,5.4
2016-01-01T10:47:50.030Z,5.4
2016-01-01T10:48:48.751Z,5.4
2016-01-01T10:49:47.723Z,5.4
2016-01-01T10:50:46.460Z,5.4
2016-01-01T10:51:45.431Z,5.4
2016-01-01T10:52:44.387Z,5.3
2016-01-01T10:53:43.374Z,5.3
2016-01-01T10:54:42.096Z,5.2
2016-01-01T10:55:41.067Z,5.2
2016-01-01T10:56:40.102Z,5.2
2016-01-01T10:57:41.844Z,5.2
2016-01-01T10:58:41.068Z,5.2
2016-01-01T10:59:40.307Z,5.2
2016-01-01T11:00:40.013Z,5.2
2016-01-01T11:01:38.831Z,5.3
2016-01-01T11:02:38.002Z,5.2
2016-01-01T11:03:36.973Z,5.2
2016-01-01T11:04:35.945Z,5.1
2016-01-01T11:05:34.929Z,5
2016-01-01T11:06:34.213Z,5.1
2016-01-01T11:07:35.966Z,5.1
2016-01-01T11:08:35.188Z,5.1
2016-01-01T11:09:34.428Z,5.1
2016-01-01T11:10:33.649Z,5
2016-01-01T11:11:33.137Z,5
2016-01-01T11:12:32.640Z,5
2016-01-01T11:13:32.112Z,5
2016-01-01T11:14:31.599Z,5
2016-01-01T11:15:31.086Z,5.1
2016-01-01T11:16:30.635Z,5.1
2016-01-01T11:17:32.372Z,5.1
2016-01-01T11:18:31.875Z,5.1
2016-01-01T11:19:31.113Z,5
2016-01-01T11:20:30.350Z,4.9
2016-01-01T11:21:29.586Z,4.9
2016-01-01T11:22:28.808Z,4.9
2016-01-01T11:23:28.030Z,4.8
2016-01-01T11:24:27.516Z,4.8
2016-01-01T11:25:27.020Z,4.8
2016-01-01T11:26:26.804Z,4.7
2016-01-01T11:27:28.557Z,4.7
2016-01-01T11:28:28.294Z,4.7
2016-01-01T11:29:28.031Z,4.7
2016-01-01T11:30:28.033Z,4.7
2016-01-01T11:31:28.052Z,4.7
2016-01-01T11:32:28.039Z,4.7
2016-01-01T11:33:28.041Z,4.6
2016-01-01T11:34:27.791Z,4.6
2016-01-01T11:35:27.529Z,4.7
2016-01-01T11:36:27.329Z,4.7
2016-01-01T11:37:29.065Z,4.7
2016-01-01T11:38:29.068Z,4.7
2016-01-01T11:39:28.806Z,4.6
2016-01-01T11:40:28.558Z,4.6
2016-01-01T11:41:28.561Z,4.6
2016-01-01T11:42:28.610Z,4.6
2016-01-01T11:43:28.817Z,4.6
2016-01-01T11:44:29.085Z,4.5
2016-01-01T11:45:29.088Z,4.5
2016-01-01T11:46:29.137Z,4.5
2016-01-01T11:47:30.890Z,4.5
2016-01-01T11:48:31.143Z,4.5
2016-01-01T11:49:31.396Z,4.5
2016-01-01T11:50:31.649Z,4.6
2016-01-01T11:51:31.916Z,4.6
2016-01-01T11:52:32.169Z,4.5
2016-01-01T11:53:32.172Z,4.5
2016-01-01T11:54:32.424Z,4.4
2016-01-01T11:55:32.677Z,4.4
2016-01-01T11:56:33.009Z,4.4
2016-01-01T11:57:34.746Z,4.4
2016-01-01T11:58:35.248Z,4.3
2016-01-01T11:59:35.518Z,4.3
2016-01-01T12:00:36.035Z,4.3
2016-01-01T12:01:36.538Z,4.3
2016-01-01T12:03:37.825Z,4.3
2016-01-01T12:04:38.609Z,4.2
2016-01-01T12:05:39.362Z,4.3
2016-01-01T12:06:40.193Z,4.3
2016-01-01T12:07:41.929Z,4.3
2016-01-01T12:08:42.714Z,4.3
2016-01-01T12:09:43.482Z,4.3
2016-01-01T12:10:44.251Z,4.3
2016-01-01T12:11:45.019Z,4.3
2016-01-01T12:12:45.788Z,4.3
2016-01-01T12:13:46.571Z,4.3
2016-01-01T12:14:47.340Z,4.2
2016-01-01T12:15:48.108Z,4.1
2016-01-01T12:16:48.940Z,4.1
2016-01-01T12:17:50.676Z,4.2
2016-01-01T12:18:51.461Z,4.2
2016-01-01T12:19:52.479Z,4.2
2016-01-01T12:20:53.263Z,4.3
2016-01-01T12:21:54.015Z,4.2
2016-01-01T12:22:54.800Z,4.2
2016-01-01T12:23:55.568Z,4.2
2016-01-01T12:24:56.337Z,4.2
2016-01-01T12:25:57.104Z,4.2
2016-01-01T12:26:57.935Z,4.2
2016-01-01T12:27:59.673Z,4.2
2016-01-01T12:29:00.441Z,4.3
2016-01-01T12:30:01.210Z,4.3
2016-01-01T12:31:01.979Z,4.3
2016-01-01T12:32:02.746Z,4.3
2016-01-01T12:33:03.265Z,4.3
2016-01-01T12:34:03.783Z,4.3
2016-01-01T12:35:04.301Z,4.3
2016-01-01T12:36:04.804Z,4.3
2016-01-01T12:37:05.385Z,4.3
2016-01-01T12:38:07.137Z,4.2
2016-01-01T12:39:07.890Z,4.1
2016-01-01T12:40:08.658Z,4.1
2016-01-01T12:41:09.442Z,4.1
2016-01-01T12:42:10.211Z,4.1
2016-01-01T12:43:11.245Z,4.1
2016-01-01T12:44:12.014Z,4.1
2016-01-01T12:45:13.031Z,4.1
2016-01-01T12:46:14.316Z,4.1
2016-01-01T12:47:15.662Z,4.1
2016-01-01T12:48:17.415Z,4.1
2016-01-01T12:49:18.433Z,4.1
2016-01-01T12:50:19.451Z,4.1
2016-01-01T12:51:20.236Z,4.1
2016-01-01T12:52:21.253Z,4
2016-01-01T12:53:22.288Z,4
2016-01-01T12:54:23.322Z,4
2016-01-01T12:55:24.606Z,4
2016-01-01T12:56:25.890Z,3.9
2016-01-01T12:57:27.236Z,3.9
2016-01-01T12:58:28.973Z,3.9
2016-01-01T12:59:30.508Z,3.9
2016-01-01T13:00:32.058Z,3.9
2016-01-01T13:01:33.606Z,3.8
2016-01-01T13:02:35.141Z,3.8
2016-01-01T13:03:36.691Z,3.8
2016-01-01T13:04:38.475Z,3.8
2016-01-01T13:06:42.074Z,3.8
2016-01-01T13:07:43.936Z,3.7
2016-01-01T13:08:45.673Z,3.7
2016-01-01T13:09:47.472Z,3.7
2016-01-01T13:10:49.257Z,3.6
2016-01-01T13:11:51.041Z,3.6
2016-01-01T13:12:53.106Z,3.7
2016-01-01T13:13:55.422Z,3.6
2016-01-01T13:14:57.721Z,3.6
2016-01-01T13:15:59.770Z,3.6
2016-01-01T13:17:01.836Z,3.6
2016-01-01T13:18:04.214Z,3.6
2016-01-01T13:19:05.950Z,3.6
2016-01-01T13:20:08.250Z,3.5
2016-01-01T13:21:10.566Z,3.5
2016-01-01T13:22:12.881Z,3.6
2016-01-01T13:23:15.197Z,3.5
2016-01-01T13:24:17.496Z,3.6
2016-01-01T13:25:19.811Z,3.6
2016-01-01T13:26:21.860Z,3.5
2016-01-01T13:27:23.925Z,3.5
2016-01-01T13:28:25.772Z,3.5
2016-01-01T13:29:27.525Z,3.5
2016-01-01T13:30:29.841Z,3.5
2016-01-01T13:31:32.140Z,3.4
2016-01-01T13:32:34.455Z,3.5
2016-01-01T13:33:36.771Z,3.4
2016-01-01T13:34:39.086Z,3.4
2016-01-01T13:35:41.385Z,3.4
2016-01-01T13:36:43.701Z,3.3
2016-01-01T13:37:46.016Z,3.3
2016-01-01T13:38:48.378Z,3.3
2016-01-01T13:39:50.131Z,3.3
2016-01-01T13:40:48.853Z,3.3
2016-01-01T13:41:47.574Z,3.3
2016-01-01T13:42:46.296Z,3.3
2016-01-01T13:43:45.017Z,3.3
2016-01-01T13:44:43.739Z,3.3
2016-01-01T13:45:42.458Z,3.3
2016-01-01T13:46:41.179Z,3.3
2016-01-01T13:47:39.900Z,3.3
2016-01-01T13:48:38.684Z,3.3
2016-01-01T13:49:40.421Z,3.3
2016-01-01T13:50:39.144Z,3.3
2016-01-01T13:51:37.864Z,3.4
2016-01-01T13:52:36.586Z,3.3
2016-01-01T13:53:35.307Z,3.4
2016-01-01T13:54:34.030Z,3.3
2016-01-01T13:55:32.750Z,3.4
2016-01-01T13:56:31.472Z,3.3
2016-01-01T13:57:30.194Z,3.4
2016-01-01T13:58:28.993Z,3.4
2016-01-01T13:59:30.716Z,3.4
2016-01-01T14:00:29.436Z,3.4
2016-01-01T14:01:28.158Z,3.4
2016-01-01T14:02:26.879Z,3.3
2016-01-01T14:03:25.601Z,3.3
2016-01-01T14:04:24.338Z,3.3
2016-01-01T14:05:23.043Z,3.3
2016-01-01T14:06:21.777Z,3.4
2016-01-01T14:07:20.500Z,3.3
2016-01-01T14:08:19.268Z,3.3
2016-01-01T14:09:21.022Z,3.3
2016-01-01T14:10:19.743Z,3.2
2016-01-01T14:11:18.463Z,3.2
2016-01-01T14:12:17.186Z,3.2
2016-01-01T14:13:16.157Z,3.1
2016-01-01T14:14:15.144Z,3.1